Terminal Aerodrome Forecast
Issued by NWS Charleston, WV

Current Version | Previous Version | Graphics & Text | Print | Product List | Glossary On
Versions: 1 2 3 4 5 6 7 8 9 10 11 12 13 14 15 16 17 18 19 20 21 22 23
000
FTUS41 KRLX 270300 AAA
TAFEKN
TAF AMD
KEKN 270306Z 2703/2724 30006KT P6SM BKN045 BKN070 OVC080
     FM270400 30005KT 1 1/2SM -SHSN BR BKN015
     FM271000 31005KT 3SM BR BKN020
     FM271100 31005KT 6SM BR BKN025
     FM272200 30006KT P6SM SCT030=

USA.gov is the U.S. government's official web portal to all federal, state and local government web resources and services.